Time;durP1;ratioP1;P1;durP2;ratioP2;P2;SDS_P1;SDS_P2;PMS_P1;PMS_P2;Temp;Humidity;BMP_temperature;BMP_pressure;BME280_temperature;BME280_humidity;BME280_pressure;Samples;Min_cycle;Max_cycle;Signal;HPM_P1;HPM_P2
2023/08/19 00:01:00;;;;;;;10.00;6.88;;;;;;;22.13;70.36;100270.41;10133265;28;22210;-75
2023/08/19 00:06:06;;;;;;;8.30;7.38;;;;;;;22.05;70.68;100282.38;10131454;28;21201;-75
2023/08/19 00:11:08;;;;;;;8.75;7.85;;;;;;;22.08;70.65;100274.63;10131207;29;20051;-75
2023/08/19 00:16:13;;;;;;;8.77;7.53;;;;;;;22.06;70.88;100284.06;10139947;28;20427;-75
2023/08/19 00:21:15;;;;;;;9.77;7.35;;;;;;;21.97;71.63;100272.47;10140642;29;20051;-75
2023/08/19 00:26:18;;;;;;;12.90;8.07;;;;;;;21.91;71.83;100280.59;10129343;29;20052;-75
2023/08/19 00:31:23;;;;;;;11.70;8.35;;;;;;;22.00;71.59;100273.94;10127654;28;20059;-75
2023/08/19 00:36:26;;;;;;;11.48;8.55;;;;;;;21.99;71.55;100273.09;10134575;28;20779;-75
2023/08/19 00:41:34;;;;;;;9.55;7.72;;;;;;;21.95;71.77;100274.53;10128233;29;20059;-75
2023/08/19 00:46:38;;;;;;;8.30;7.50;;;;;;;21.84;72.41;100278.69;10132231;29;20115;-75
2023/08/19 00:51:41;;;;;;;11.18;8.43;;;;;;;21.84;72.65;100275.13;10127387;29;20067;-75
2023/08/19 00:56:44;;;;;;;7.88;7.13;;;;;;;21.77;72.60;100276.94;10151626;29;21637;-75
2023/08/19 01:01:48;;;;;;;9.43;7.63;;;;;;;21.74;72.90;100286.38;10151767;28;21192;-75
2023/08/19 01:06:59;;;;;;;10.23;7.55;;;;;;;21.69;73.26;100277.91;10138235;28;20070;-75
2023/08/19 01:12:13;;;;;;;9.38;7.70;;;;;;;21.66;73.03;100278.31;10132438;29;20052;-75
2023/08/19 01:17:21;;;;;;;11.80;8.13;;;;;;;21.58;73.57;100273.00;10134722;29;20052;-75
2023/08/19 01:22:34;;;;;;;10.20;9.02;;;;;;;21.51;74.13;100262.03;10144063;29;20055;-75
2023/08/19 01:27:38;;;;;;;9.90;8.65;;;;;;;21.42;74.44;100252.31;10143661;28;20052;-75
2023/08/19 01:32:43;;;;;;;14.35;9.32;;;;;;;21.38;74.60;100240.09;10132483;29;20048;-75
2023/08/19 01:37:50;;;;;;;14.43;9.85;;;;;;;21.38;74.96;100238.19;10130073;29;20048;-75
2023/08/19 01:42:55;;;;;;;11.43;10.13;;;;;;;21.29;75.50;100239.38;10128035;29;20048;-75
2023/08/19 01:47:58;;;;;;;11.75;9.40;;;;;;;21.35;75.44;100237.75;10135124;29;20055;-75
2023/08/19 01:53:01;;;;;;;15.57;10.43;;;;;;;21.40;75.27;100229.81;10123196;29;20529;-75
2023/08/19 01:58:06;;;;;;;11.68;10.15;;;;;;;21.39;75.50;100231.69;10125553;29;20135;-75
2023/08/19 02:03:08;;;;;;;13.27;10.43;;;;;;;21.37;75.55;100239.25;10125675;29;20062;-75
2023/08/19 02:08:11;;;;;;;14.30;11.20;;;;;;;21.40;75.40;100241.56;10138470;28;20048;-75
2023/08/19 02:13:16;;;;;;;12.65;10.35;;;;;;;21.35;75.64;100237.75;10130447;29;20048;-75
2023/08/19 02:18:19;;;;;;;11.38;10.18;;;;;;;21.33;75.58;100245.28;10145753;28;20046;-75
2023/08/19 02:23:21;;;;;;;13.88;11.27;;;;;;;21.23;75.67;100235.56;10139095;28;20055;-75
2023/08/19 02:28:26;;;;;;;15.27;11.85;;;;;;;21.15;76.08;100234.88;10129216;29;20055;-75
2023/08/19 02:33:28;;;;;;;12.85;11.00;;;;;;;21.13;76.75;100239.69;10135178;29;20062;-75
2023/08/19 02:38:31;;;;;;;13.35;11.23;;;;;;;21.09;76.81;100244.69;10132481;28;20055;-75
2023/08/19 02:43:36;;;;;;;14.80;11.85;;;;;;;21.15;76.34;100249.38;10129877;29;20083;-75
2023/08/19 02:48:39;;;;;;;14.20;12.10;;;;;;;21.05;76.98;100240.66;10136835;28;20616;-75
2023/08/19 02:53:43;;;;;;;16.80;11.70;;;;;;;21.04;76.94;100241.72;10129483;29;20044;-75
2023/08/19 02:58:47;;;;;;;12.55;10.68;;;;;;;21.04;77.05;100251.78;10147052;28;20068;-75
2023/08/19 03:03:50;;;;;;;15.13;11.95;;;;;;;20.98;77.32;100253.34;10130306;29;20048;-75
2023/08/19 03:08:53;;;;;;;16.88;12.50;;;;;;;20.95;77.31;100249.16;10141140;28;20610;-75
2023/08/19 03:13:57;;;;;;;15.23;12.68;;;;;;;20.92;77.55;100252.25;10121788;28;20051;-75
2023/08/19 03:19:00;;;;;;;15.65;13.10;;;;;;;20.91;77.63;100256.03;10130364;28;20503;-75
2023/08/19 03:24:03;;;;;;;16.70;12.93;;;;;;;20.88;77.78;100252.88;10139273;28;20583;-75
2023/08/19 03:29:08;;;;;;;17.55;13.63;;;;;;;20.86;78.03;100250.31;10136707;28;20498;-75
2023/08/19 03:34:11;;;;;;;16.77;13.77;;;;;;;20.81;78.41;100249.22;10127801;28;20134;-75
2023/08/19 03:39:14;;;;;;;17.23;12.85;;;;;;;20.83;78.22;100255.31;10138297;29;20435;-75
2023/08/19 03:44:19;;;;;;;16.80;14.30;;;;;;;20.66;78.86;100252.84;10139092;28;20134;-75
2023/08/19 03:49:22;;;;;;;19.50;14.73;;;;;;;20.72;78.67;100249.34;10139997;28;20193;-75
2023/08/19 03:54:25;;;;;;;20.08;15.02;;;;;;;20.72;78.91;100254.78;10133030;28;20048;-75
2023/08/19 03:59:29;;;;;;;17.60;14.98;;;;;;;20.70;78.96;100256.88;10137172;28;20087;-75
2023/08/19 04:04:32;;;;;;;17.77;15.27;;;;;;;20.65;79.30;100251.16;10137608;28;20420;-75
2023/08/19 04:09:36;;;;;;;20.05;16.25;;;;;;;20.66;79.21;100249.28;10130449;28;20048;-75
2023/08/19 04:14:40;;;;;;;22.63;16.17;;;;;;;20.70;79.07;100232.31;10135339;28;20082;-75
2023/08/19 04:19:44;;;;;;;21.63;15.98;;;;;;;20.69;79.26;100227.06;10128632;29;20048;-75
2023/08/19 04:24:50;;;;;;;20.15;16.08;;;;;;;20.61;79.36;100228.03;10159729;28;20047;-75
2023/08/19 04:29:54;;;;;;;21.85;15.63;;;;;;;20.61;79.63;100206.19;10145991;28;20055;-75
2023/08/19 04:34:59;;;;;;;20.45;16.27;;;;;;;20.57;79.91;100210.38;10150748;29;20058;-75
2023/08/19 04:40:04;;;;;;;17.70;15.48;;;;;;;20.63;79.58;100208.75;10139030;28;20045;-75
2023/08/19 04:45:14;;;;;;;19.92;16.85;;;;;;;20.70;79.77;100212.38;10137853;28;20114;-75
2023/08/19 04:50:21;;;;;;;19.20;16.40;;;;;;;20.75;79.33;100215.34;10143910;28;20115;-75
2023/08/19 04:55:26;;;;;;;21.02;16.50;;;;;;;20.82;79.35;100215.44;10142069;28;20052;-75
2023/08/19 05:00:30;;;;;;;19.42;16.48;;;;;;;20.77;79.35;100232.38;10133217;28;20531;-75
2023/08/19 05:05:33;;;;;;;20.92;16.80;;;;;;;20.86;79.34;100239.41;10141381;28;20851;-75
2023/08/19 05:10:37;;;;;;;21.88;18.15;;;;;;;20.96;79.26;100244.53;10144328;28;20419;-75
2023/08/19 05:15:41;;;;;;;21.17;16.95;;;;;;;20.97;79.16;100241.59;10139939;28;20628;-75
2023/08/19 05:20:46;;;;;;;22.95;17.23;;;;;;;21.15;78.56;100256.72;10150998;29;20059;-75
2023/08/19 05:25:49;;;;;;;17.35;15.55;;;;;;;21.17;78.30;100254.63;10148590;28;20685;-75
2023/08/19 05:30:54;;;;;;;19.45;16.08;;;;;;;21.26;78.22;100252.59;10148458;28;20049;-75
2023/08/19 05:35:56;;;;;;;18.88;16.63;;;;;;;21.28;78.13;100248.59;10135217;28;20044;-75
2023/08/19 05:40:59;;;;;;;18.45;14.80;;;;;;;21.45;77.67;100254.66;10141619;28;20062;-75
2023/08/19 05:46:06;;;;;;;19.52;15.57;;;;;;;21.61;77.04;100248.88;10146454;28;20063;-75
2023/08/19 05:51:09;;;;;;;20.08;16.30;;;;;;;21.76;76.68;100259.72;10134074;28;20055;-76
2023/08/19 05:56:12;;;;;;;18.25;15.13;;;;;;;21.91;75.77;100267.78;10145457;29;20055;-76
2023/08/19 06:01:16;;;;;;;17.25;15.45;;;;;;;22.02;75.39;100264.50;10153330;28;20044;-76
2023/08/19 06:06:19;;;;;;;17.52;14.90;;;;;;;22.29;74.88;100270.06;10144416;28;20063;-76
2023/08/19 06:11:22;;;;;;;20.80;14.90;;;;;;;22.35;73.80;100261.03;10141024;28;20051;-76
2023/08/19 06:16:27;;;;;;;18.80;14.82;;;;;;;22.60;73.45;100266.00;10145733;28;20067;-76
2023/08/19 06:21:30;;;;;;;15.70;13.73;;;;;;;22.73;72.35;100258.66;10132847;29;20036;-77
2023/08/19 06:26:33;;;;;;;16.90;13.68;;;;;;;22.95;71.52;100269.44;10128790;29;20052;-77
2023/08/19 06:31:38;;;;;;;18.15;14.65;;;;;;;23.06;71.58;100279.78;10140144;28;20060;-76
2023/08/19 06:36:43;;;;;;;16.67;14.35;;;;;;;23.04;71.29;100281.03;10151555;29;20047;-77
2023/08/19 06:41:50;;;;;;;16.20;14.32;;;;;;;23.19;70.71;100278.97;10135246;28;20713;-77
2023/08/19 06:46:57;;;;;;;16.88;13.40;;;;;;;23.47;70.12;100280.66;10140520;29;20044;-77
2023/08/19 06:52:01;;;;;;;15.30;13.70;;;;;;;23.50;69.51;100286.56;10134013;29;20048;-76
2023/08/19 06:57:07;;;;;;;16.67;13.48;;;;;;;23.15;70.25;100284.06;10132098;29;20182;-76
2023/08/19 07:02:13;;;;;;;15.43;13.43;;;;;;;23.61;69.33;100274.09;10125858;28;20134;-76
2023/08/19 07:07:21;;;;;;;16.05;12.68;;;;;;;23.71;69.20;100280.00;10133091;29;20059;-76
2023/08/19 07:12:24;;;;;;;16.25;13.73;;;;;;;24.50;67.71;100283.63;10129909;28;20397;-77
2023/08/19 07:17:31;;;;;;;13.65;12.25;;;;;;;25.08;65.08;100283.50;10144364;28;20055;-77
2023/08/19 07:22:37;;;;;;;14.25;12.55;;;;;;;24.65;65.34;100278.66;10144704;28;21669;-77
2023/08/19 07:27:43;;;;;;;12.77;11.48;;;;;;;25.36;63.50;100280.31;10133532;29;20605;-77
2023/08/19 07:32:48;;;;;;;14.75;11.68;;;;;;;25.97;61.73;100275.94;10126714;29;20047;-77
2023/08/19 07:37:51;;;;;;;13.43;10.15;;;;;;;26.02;60.50;100283.50;10139884;28;21274;-78
2023/08/19 07:42:54;;;;;;;10.65;9.27;;;;;;;26.15;60.16;100286.09;10141541;29;20055;-77
2023/08/19 07:47:58;;;;;;;12.23;9.75;;;;;;;26.13;61.13;100279.16;10155541;28;20052;-78
2023/08/19 07:53:01;;;;;;;11.57;9.52;;;;;;;25.97;61.31;100270.44;10145016;28;20048;-78
2023/08/19 07:58:04;;;;;;;11.88;9.15;;;;;;;25.95;61.12;100280.00;10136799;28;20423;-77
2023/08/19 08:03:09;;;;;;;9.65;8.73;;;;;;;25.84;61.46;100282.44;10130300;29;20727;-77
2023/08/19 08:08:12;;;;;;;10.10;9.10;;;;;;;25.80;61.41;100272.09;10135580;28;20052;-78
2023/08/19 08:13:15;;;;;;;13.15;9.07;;;;;;;25.78;61.83;100277.84;10135690;28;20040;-78
2023/08/19 08:18:19;;;;;;;11.05;9.95;;;;;;;25.80;61.68;100283.94;10133915;29;20048;-77
2023/08/19 08:23:22;;;;;;;10.57;8.80;;;;;;;26.30;60.81;100282.97;10138193;28;20047;-78
2023/08/19 08:28:25;;;;;;;10.80;9.02;;;;;;;26.58;59.45;100278.84;10126188;28;20072;-77
2023/08/19 08:33:29;;;;;;;11.55;9.10;;;;;;;26.80;58.87;100279.16;10142297;28;20056;-77
2023/08/19 08:38:33;;;;;;;11.10;8.70;;;;;;;27.09;58.30;100272.78;10130712;29;20052;-77
2023/08/19 08:43:39;;;;;;;10.73;8.85;;;;;;;27.56;57.02;100272.03;10142805;29;20052;-77
2023/08/19 08:48:44;;;;;;;10.48;8.40;;;;;;;27.55;57.15;100284.16;10135209;28;20056;-78
2023/08/19 08:53:49;;;;;;;8.73;7.82;;;;;;;27.84;55.72;100279.59;10135762;28;20546;-78
2023/08/19 08:58:52;;;;;;;8.73;7.82;;;;;;;28.26;55.64;100283.00;10129617;28;20058;-77
2023/08/19 09:04:03;;;;;;;8.10;7.00;;;;;;;28.25;54.42;100280.50;10117123;29;20133;-77
2023/08/19 09:09:11;;;;;;;9.13;7.45;;;;;;;27.90;54.42;100284.13;10133940;29;20048;-77
2023/08/19 09:14:23;;;;;;;8.52;6.20;;;;;;;28.18;54.49;100282.56;10137068;29;20055;-77
2023/08/19 09:19:27;;;;;;;6.75;6.03;;;;;;;28.44;52.74;100283.91;10133979;28;20056;-77
2023/08/19 09:24:30;;;;;;;6.85;5.72;;;;;;;28.17;52.89;100281.72;10135676;28;20536;-78
2023/08/19 09:29:33;;;;;;;6.93;5.45;;;;;;;28.49;52.02;100282.09;10151457;28;20087;-77
2023/08/19 09:34:37;;;;;;;7.30;6.40;;;;;;;28.73;51.95;100283.97;10140473;29;20067;-77
2023/08/19 09:39:41;;;;;;;9.68;6.25;;;;;;;29.01;51.53;100281.16;10131673;29;20071;-77
2023/08/19 09:44:44;;;;;;;9.43;5.78;;;;;;;29.53;51.08;100271.81;10143411;28;20048;-77
2023/08/19 09:49:52;;;;;;;7.20;5.82;;;;;;;29.87;49.78;100277.31;10135569;28;20201;-74
2023/08/19 09:54:55;;;;;;;7.97;5.80;;;;;;;29.89;49.01;100275.13;10132229;29;20597;-74
2023/08/19 09:59:58;;;;;;;6.18;5.38;;;;;;;29.65;49.73;100278.13;10130521;28;20112;-74
2023/08/19 10:05:05;;;;;;;9.82;5.88;;;;;;;30.02;49.79;100272.84;10117866;29;20060;-76
2023/08/19 10:10:12;;;;;;;6.20;5.60;;;;;;;30.63;48.37;100267.22;10125985;29;20048;-74
2023/08/19 10:15:15;;;;;;;7.10;4.97;;;;;;;30.63;47.30;100260.84;10132753;28;20052;-74
2023/08/19 10:20:22;;;;;;;6.03;4.80;;;;;;;31.14;45.57;100256.66;10129353;29;20453;-74
2023/08/19 10:25:26;;;;;;;5.32;4.82;;;;;;;31.25;45.71;100259.56;10128647;29;20534;-75
2023/08/19 10:30:31;;;;;;;8.00;4.80;;;;;;;30.46;47.33;100260.94;10130608;29;20047;-74
2023/08/19 10:36:07;;;;;;;5.25;4.65;;;;;;;30.11;48.75;100264.06;10126295;29;20040;-74
2023/08/19 10:41:18;;;;;;;8.32;5.47;;;;;;;29.39;49.74;100265.78;10068196;28;20044;-74
2023/08/19 10:46:25;;;;;;;6.60;5.32;;;;;;;29.15;51.41;100257.69;10116076;29;21587;-74
2023/08/19 10:51:57;;;;;;;7.38;5.05;;;;;;;29.13;51.79;100253.50;10129623;28;20059;-75
2023/08/19 10:57:09;;;;;;;6.18;5.50;;;;;;;28.95;52.13;100276.63;10121845;29;20051;-74
2023/08/19 11:02:13;;;;;;;7.10;6.28;;;;;;;28.88;52.71;100264.88;10129977;29;20048;-74
2023/08/19 11:07:18;;;;;;;10.07;6.07;;;;;;;28.89;52.87;100277.63;10126097;28;20436;-74
2023/08/19 11:12:22;;;;;;;9.50;6.47;;;;;;;28.91;53.48;100275.47;10127978;29;20072;-74
2023/08/19 11:17:30;;;;;;;12.65;6.53;;;;;;;28.89;54.31;100272.94;10124568;28;20052;-74
2023/08/19 11:22:41;;;;;;;8.55;5.68;;;;;;;28.35;58.20;100280.69;10116335;29;20539;-74
2023/08/19 11:27:45;;;;;;;7.13;5.78;;;;;;;28.40;57.88;100278.03;10116870;29;20044;-74
2023/08/19 11:32:48;;;;;;;8.50;5.70;;;;;;;28.86;56.32;100295.56;10119045;28;20079;-74
2023/08/19 11:37:53;;;;;;;6.40;5.68;;;;;;;29.11;55.64;100295.19;10113839;29;20524;-74
2023/08/19 11:43:05;;;;;;;9.13;5.90;;;;;;;29.09;55.60;100308.44;10125819;29;20119;-74
2023/08/19 11:48:14;;;;;;;8.35;5.82;;;;;;;29.08;56.22;100311.47;10127642;29;20270;-74
2023/08/19 11:53:26;;;;;;;5.78;4.78;;;;;;;29.07;53.16;100326.34;10125361;29;20048;-75
2023/08/19 11:58:42;;;;;;;6.38;4.38;;;;;;;29.08;52.12;100333.59;10125349;29;20063;-74
2023/08/19 12:03:46;;;;;;;8.07;4.78;;;;;;;29.21;53.22;100347.09;10125724;28;20135;-74
2023/08/19 12:08:50;;;;;;;7.53;4.05;;;;;;;29.20;53.27;100344.56;10115375;28;20514;-74
2023/08/19 12:13:53;;;;;;;4.93;3.78;;;;;;;28.94;52.83;100344.09;10121727;29;20169;-73
2023/08/19 12:18:57;;;;;;;8.25;4.53;;;;;;;29.12;53.26;100349.41;10121285;28;20074;-74
2023/08/19 12:24:01;;;;;;;6.18;4.50;;;;;;;29.32;53.80;100348.13;10110360;29;20052;-74
2023/08/19 12:29:04;;;;;;;7.15;5.07;;;;;;;29.35;56.65;100351.22;10113763;29;20068;-74
2023/08/19 12:34:07;;;;;;;6.40;4.63;;;;;;;29.56;56.91;100357.09;10120230;29;20628;-74
2023/08/19 12:39:12;;;;;;;8.32;4.88;;;;;;;29.74;55.87;100361.56;10124532;29;20382;-74
2023/08/19 12:44:15;;;;;;;5.43;4.70;;;;;;;29.97;55.97;100366.91;10130285;29;20685;-74
2023/08/19 12:49:17;;;;;;;11.55;5.68;;;;;;;30.16;54.90;100361.13;10134039;29;20536;-73
2023/08/19 12:54:22;;;;;;;6.20;5.57;;;;;;;30.19;54.04;100371.69;10134263;29;20465;-74
2023/08/19 12:59:24;;;;;;;6.43;5.88;;;;;;;30.25;52.83;100370.66;10133762;28;20708;-74
2023/08/19 13:04:27;;;;;;;9.07;6.43;;;;;;;30.40;52.50;100370.03;10132840;29;20504;-74
2023/08/19 13:09:31;;;;;;;12.20;5.65;;;;;;;30.53;52.36;100366.88;10126915;29;20365;-74
2023/08/19 13:14:34;;;;;;;8.40;4.95;;;;;;;30.74;51.06;100369.94;10131439;29;20083;-74
2023/08/19 13:19:37;;;;;;;7.47;5.35;;;;;;;31.14;50.29;100366.78;10130697;29;20481;-74
2023/08/19 13:24:41;;;;;;;6.30;5.15;;;;;;;32.03;48.18;100393.13;10132661;28;20060;-75
2023/08/19 13:29:45;;;;;;;5.38;4.97;;;;;;;32.03;48.47;100393.13;10127869;28;20064;-76
2023/08/19 13:34:49;;;;;;;7.45;4.90;;;;;;;32.56;47.87;100409.88;10123058;29;20052;-73
2023/08/19 13:39:53;;;;;;;6.25;4.90;;;;;;;33.20;45.84;100431.84;10123251;29;20100;-76
2023/08/19 13:44:57;;;;;;;5.40;4.50;;;;;;;33.70;43.73;100437.78;10130794;29;20052;-73
2023/08/19 13:50:00;;;;;;;4.63;4.03;;;;;;;31.26;46.25;100449.88;10134043;29;20048;-75
2023/08/19 13:55:06;;;;;;;6.15;4.18;;;;;;;31.02;47.16;100463.16;10133919;28;20086;-75
2023/08/19 14:00:11;;;;;;;7.43;3.85;;;;;;;29.99;49.25;100464.41;10130562;29;20055;-73
2023/08/19 14:05:16;;;;;;;6.47;4.15;;;;;;;29.77;49.79;100474.56;10133530;28;20444;-74
2023/08/19 14:10:22;;;;;;;6.45;4.88;;;;;;;29.87;49.79;100476.66;10132703;29;20048;-74
2023/08/19 14:15:25;;;;;;;9.02;4.82;;;;;;;29.65;50.81;100479.31;10131591;28;20052;-74
2023/08/19 14:20:29;;;;;;;6.50;4.72;;;;;;;29.71;51.26;100493.00;10127562;28;20426;-74
2023/08/19 14:25:33;;;;;;;8.30;4.88;;;;;;;29.18;52.54;100493.31;10127292;29;20075;-74
2023/08/19 14:30:37;;;;;;;8.10;5.60;;;;;;;28.62;54.39;100501.22;10136658;29;20135;-74
2023/08/19 14:35:42;;;;;;;5.70;4.32;;;;;;;28.40;53.43;100521.13;10137643;29;20067;-74
2023/08/19 14:40:46;;;;;;;7.85;4.03;;;;;;;27.67;53.19;100535.22;10129184;29;20108;-74
2023/08/19 14:45:49;;;;;;;7.90;3.85;;;;;;;27.58;51.25;100534.69;10125738;28;20052;-73
2023/08/19 14:50:53;;;;;;;5.72;3.70;;;;;;;27.09;51.61;100540.16;10126376;28;20060;-73
2023/08/19 14:55:57;;;;;;;4.47;3.40;;;;;;;26.59;52.42;100545.78;10127497;28;21145;-73
2023/08/19 15:01:00;;;;;;;5.72;3.58;;;;;;;26.08;56.71;100577.06;10126089;29;20084;-74
2023/08/19 15:06:03;;;;;;;8.95;3.80;;;;;;;24.97;65.46;100570.75;10134290;29;20532;-74
2023/08/19 15:11:07;;;;;;;10.07;5.03;;;;;;;25.18;66.40;100566.09;10129401;29;20522;-74
2023/08/19 15:16:10;;;;;;;11.20;5.50;;;;;;;25.78;64.51;100568.59;10126383;28;20059;-75
2023/08/19 15:21:13;;;;;;;10.95;6.47;;;;;;;25.83;64.75;100572.38;10129761;28;20523;-75
2023/08/19 15:26:17;;;;;;;8.73;7.20;;;;;;;25.30;65.17;100588.25;10131689;29;20087;-75
2023/08/19 15:31:21;;;;;;;8.98;6.97;;;;;;;25.44;65.48;100608.28;10128777;29;20881;-75
2023/08/19 15:36:24;;;;;;;7.85;7.03;;;;;;;25.16;66.78;100604.78;10129382;28;20048;-75
2023/08/19 15:41:29;;;;;;;11.95;7.78;;;;;;;25.48;66.64;100617.78;10126804;28;20384;-75
2023/08/19 15:46:35;;;;;;;11.10;8.50;;;;;;;25.17;68.02;100619.38;10126027;28;20060;-75
2023/08/19 15:51:38;;;;;;;13.10;9.00;;;;;;;25.45;67.55;100615.47;10132452;28;20071;-75
2023/08/19 15:56:42;;;;;;;13.32;10.15;;;;;;;25.19;69.04;100620.00;10126959;29;20436;-75
2023/08/19 16:01:45;;;;;;;11.30;8.95;;;;;;;25.43;68.69;100623.13;10127456;28;20064;-75
2023/08/19 16:06:48;;;;;;;14.20;10.48;;;;;;;25.09;69.38;100619.59;10133589;29;20060;-75
2023/08/19 16:11:52;;;;;;;14.23;10.57;;;;;;;25.25;69.08;100624.63;10131989;28;20051;-75
2023/08/19 16:16:55;;;;;;;14.23;11.30;;;;;;;25.07;68.10;100650.06;10135379;29;20147;-75
2023/08/19 16:21:58;;;;;;;15.20;10.82;;;;;;;25.14;67.24;100648.13;10139091;29;20059;-75
2023/08/19 16:27:02;;;;;;;10.40;8.63;;;;;;;25.44;65.99;100627.53;10139767;29;20048;-76
2023/08/19 16:32:06;;;;;;;9.93;8.93;;;;;;;25.53;67.61;100609.72;10134380;29;20050;-75
2023/08/19 16:37:09;;;;;;;14.45;10.38;;;;;;;25.18;70.67;100577.09;10128961;28;20052;-75
2023/08/19 16:42:14;;;;;;;11.57;10.25;;;;;;;24.89;73.61;100581.16;10136465;28;20060;-75
2023/08/19 16:47:18;;;;;;;15.90;11.35;;;;;;;24.22;81.05;100570.19;10134111;29;20044;-76
2023/08/19 16:52:21;;;;;;;13.00;11.50;;;;;;;23.33;83.17;100592.25;10129353;29;20056;-75
2023/08/19 16:57:28;;;;;;;16.70;12.48;;;;;;;23.17;86.04;100605.22;10126672;29;20055;-75
2023/08/19 17:02:34;;;;;;;16.50;13.65;;;;;;;23.18;83.11;100619.78;10128968;28;20052;-75
2023/08/19 17:07:36;;;;;;;16.17;13.27;;;;;;;23.38;81.56;100642.66;10145607;28;20056;-74
2023/08/19 17:12:41;;;;;;;18.00;14.20;;;;;;;23.47;80.51;100637.00;10127693;29;20193;-74
2023/08/19 17:17:44;;;;;;;14.90;12.75;;;;;;;23.66;78.87;100634.34;10137925;29;20159;-74
2023/08/19 17:22:47;;;;;;;14.25;12.77;;;;;;;24.20;80.85;100623.59;10130913;29;20079;-74
2023/08/19 17:27:51;;;;;;;15.30;13.73;;;;;;;24.02;76.97;100651.59;10142706;29;20051;-74
2023/08/19 17:32:54;;;;;;;13.77;12.52;;;;;;;24.18;77.54;100658.59;10135138;28;21620;-75
2023/08/19 17:37:57;;;;;;;14.25;12.65;;;;;;;24.04;77.41;100669.53;10142266;28;20048;-74
2023/08/19 17:43:01;;;;;;;15.27;13.77;;;;;;;23.83;76.98;100686.13;10133689;29;20044;-74
2023/08/19 17:48:04;;;;;;;19.55;14.98;;;;;;;23.67;77.56;100681.84;10133411;29;20059;-75
2023/08/19 17:53:07;;;;;;;20.35;16.55;;;;;;;23.82;76.74;100674.31;10128911;29;20056;-75
2023/08/19 17:58:12;;;;;;;20.67;16.70;;;;;;;23.84;76.93;100665.91;10126456;29;20063;-76
2023/08/19 18:03:15;;;;;;;22.35;19.30;;;;;;;23.64;77.95;100682.22;10131878;28;20052;-76
2023/08/19 18:08:19;;;;;;;21.00;18.52;;;;;;;23.93;77.61;100672.88;10129868;29;20052;-75
2023/08/19 18:13:23;;;;;;;24.38;19.58;;;;;;;23.81;77.92;100686.34;10129244;29;20052;-76
2023/08/19 18:18:26;;;;;;;22.42;18.50;;;;;;;24.16;77.34;100674.44;10132095;29;20048;-76
2023/08/19 18:23:29;;;;;;;21.95;16.85;;;;;;;24.23;76.37;100680.78;10128625;29;20065;-76
2023/08/19 18:28:33;;;;;;;21.30;18.70;;;;;;;24.05;76.76;100682.22;10128192;28;20550;-75
2023/08/19 18:33:36;;;;;;;20.17;18.13;;;;;;;23.89;77.41;100690.81;10131463;28;20562;-76
2023/08/19 18:38:39;;;;;;;21.15;18.48;;;;;;;23.64;78.67;100683.09;10129934;29;20071;-76
2023/08/19 18:43:43;;;;;;;22.50;20.05;;;;;;;23.58;79.17;100686.63;10125527;29;20044;-75
2023/08/19 18:48:46;;;;;;;20.30;18.00;;;;;;;23.52;79.52;100698.41;10133054;29;20085;-76
2023/08/19 18:53:49;;;;;;;23.25;17.67;;;;;;;23.44;80.05;100704.88;10132639;28;20044;-75
2023/08/19 18:58:53;;;;;;;18.40;16.38;;;;;;;23.52;80.31;100712.09;10138266;28;21429;-75
2023/08/19 19:03:57;;;;;;;20.80;16.27;;;;;;;23.51;80.10;100720.56;10134878;29;20493;-75
2023/08/19 19:09:02;;;;;;;22.23;19.23;;;;;;;23.32;79.83;100733.91;10136170;28;20196;-75
2023/08/19 19:14:06;;;;;;;23.42;20.92;;;;;;;23.22;80.99;100733.41;10135049;28;20063;-74
2023/08/19 19:19:10;;;;;;;23.45;19.70;;;;;;;22.98;81.95;100748.34;10136055;29;20055;-74
2023/08/19 19:24:13;;;;;;;25.88;21.42;;;;;;;22.95;82.08;100746.00;10130201;28;20063;-74
2023/08/19 19:29:18;;;;;;;27.17;22.42;;;;;;;22.93;82.76;100753.59;10135227;29;20056;-74
2023/08/19 19:34:21;;;;;;;26.58;22.63;;;;;;;22.87;82.91;100759.84;10134502;29;20531;-74
2023/08/19 19:39:24;;;;;;;26.13;23.45;;;;;;;22.77;83.72;100760.19;10130318;28;20048;-74
2023/08/19 19:44:28;;;;;;;29.05;23.95;;;;;;;22.62;84.94;100764.88;10129201;29;20543;-74
2023/08/19 19:49:31;;;;;;;28.55;24.88;;;;;;;22.34;87.01;100768.31;10126610;28;20067;-74
2023/08/19 19:54:34;;;;;;;32.08;25.52;;;;;;;22.51;86.09;100764.34;10127790;28;20052;-74
2023/08/19 19:59:38;;;;;;;32.30;26.42;;;;;;;22.27;87.24;100771.00;10127330;28;20063;-74
2023/08/19 20:04:41;;;;;;;32.00;27.55;;;;;;;22.40;87.18;100783.13;10122668;29;20160;-74
2023/08/19 20:09:44;;;;;;;32.25;28.13;;;;;;;22.59;85.68;100781.69;10127451;29;20047;-75
2023/08/19 20:14:48;;;;;;;33.53;29.67;;;;;;;22.52;85.80;100781.63;10132873;29;20056;-74
2023/08/19 20:19:51;;;;;;;36.72;30.00;;;;;;;22.57;85.34;100790.06;10131142;28;20048;-74
2023/08/19 20:24:54;;;;;;;39.67;29.55;;;;;;;22.51;85.27;100794.44;10115993;28;20149;-74
2023/08/19 20:29:58;;;;;;;33.72;28.00;;;;;;;22.49;85.27;100796.53;10127402;29;20051;-74
2023/08/19 20:35:01;;;;;;;32.88;29.35;;;;;;;22.43;85.26;100810.97;10122855;29;21312;-74
2023/08/19 20:40:05;;;;;;;32.97;29.50;;;;;;;22.33;86.12;100803.06;10120999;29;20568;-75
2023/08/19 20:45:12;;;;;;;34.15;27.83;;;;;;;22.25;86.44;100811.38;10134016;28;20540;-75
2023/08/19 20:50:15;;;;;;;34.05;28.50;;;;;;;22.24;86.95;100817.03;10123741;28;21065;-75
2023/08/19 20:55:18;;;;;;;35.22;28.77;;;;;;;22.07;88.08;100821.84;10120482;29;21260;-75
2023/08/19 21:00:22;;;;;;;38.05;30.27;;;;;;;22.07;87.85;100830.06;10125627;29;20044;-75
2023/08/19 21:05:25;;;;;;;35.78;30.98;;;;;;;22.09;87.95;100830.72;10138463;29;20471;-75
2023/08/19 21:10:29;;;;;;;33.90;28.35;;;;;;;22.13;87.77;100821.09;10131428;29;20056;-75
2023/08/19 21:15:33;;;;;;;38.38;30.27;;;;;;;22.07;87.93;100835.53;10129519;28;20207;-75
2023/08/19 21:20:36;;;;;;;39.28;30.95;;;;;;;22.00;88.13;100834.59;10130472;29;20228;-75
2023/08/19 21:25:42;;;;;;;34.78;30.92;;;;;;;21.98;88.28;100833.94;10126679;29;20056;-75
2023/08/19 21:30:52;;;;;;;35.95;31.98;;;;;;;21.96;88.57;100825.91;10132066;29;20131;-74
2023/08/19 21:35:55;;;;;;;37.78;32.25;;;;;;;21.89;89.19;100825.00;10131138;29;20065;-75
2023/08/19 21:40:58;;;;;;;39.75;32.17;;;;;;;21.76;89.89;100833.84;10127382;28;20106;-74
2023/08/19 21:46:02;;;;;;;40.15;33.63;;;;;;;21.85;88.93;100835.44;10118042;29;20057;-74
2023/08/19 21:51:05;;;;;;;38.10;33.08;;;;;;;21.84;88.87;100838.38;10128925;29;20048;-75
2023/08/19 21:56:08;;;;;;;44.30;35.03;;;;;;;21.84;88.55;100839.22;10127793;29;20523;-75
2023/08/19 22:01:12;;;;;;;38.88;32.28;;;;;;;21.91;88.79;100850.22;10117952;29;20428;-75
2023/08/19 22:06:15;;;;;;;31.95;28.38;;;;;;;22.08;88.25;100851.78;10121397;29;20508;-74
2023/08/19 22:11:18;;;;;;;34.35;28.13;;;;;;;22.17;87.14;100858.00;10128335;28;20143;-74
2023/08/19 22:16:22;;;;;;;34.20;29.40;;;;;;;22.11;86.93;100856.00;10119782;29;20724;-75
2023/08/19 22:21:25;;;;;;;31.33;27.92;;;;;;;22.10;86.28;100862.50;10118994;29;20055;-74
2023/08/19 22:26:28;;;;;;;36.20;30.10;;;;;;;21.99;85.92;100860.25;10121883;29;20105;-74
2023/08/19 22:31:32;;;;;;;36.60;30.65;;;;;;;21.85;85.81;100870.13;10120290;29;20089;-74
2023/08/19 22:36:37;;;;;;;36.75;29.73;;;;;;;21.83;85.53;100878.53;10113363;28;20060;-76
2023/08/19 22:41:40;;;;;;;38.65;29.27;;;;;;;21.79;85.67;100882.66;10115386;29;20108;-76
2023/08/19 22:46:44;;;;;;;37.63;28.77;;;;;;;21.76;85.48;100882.19;10113778;29;20674;-74
2023/08/19 22:51:47;;;;;;;32.85;26.40;;;;;;;21.72;84.88;100892.63;10114699;29;20200;-74
2023/08/19 22:56:50;;;;;;;35.30;26.85;;;;;;;21.48;84.52;100896.44;10115869;29;20059;-76